Time;durP1;ratioP1;P1;durP2;ratioP2;P2;SDS_P1;SDS_P2;PMS_P1;PMS_P2;Temp;Humidity;BMP_temperature;BMP_pressure;BME280_temperature;BME280_humidity;BME280_pressure;Samples;Min_cycle;Max_cycle;Signal;HPM_P1;HPM_P2
2022/01/17 00:00:01;;;;;;;17.00;4.70;;;;;;;6.47;100.00;102975.09;5057071;28;20087;-69
2022/01/17 00:02:28;;;;;;;16.88;4.05;;;;;;;6.45;100.00;102981.78;5054235;28;20051;-72
2022/01/17 00:04:53;;;;;;;9.32;2.92;;;;;;;6.47;100.00;102969.66;5039115;28;20041;-71
2022/01/17 00:07:19;;;;;;;19.50;3.47;;;;;;;6.41;100.00;102973.28;5038514;28;20405;-69
2022/01/17 00:09:44;;;;;;;16.40;3.30;;;;;;;6.40;100.00;102973.47;5039065;28;20049;-71
2022/01/17 00:12:10;;;;;;;17.15;2.95;;;;;;;6.34;100.00;102965.22;5038624;28;20052;-69
2022/01/17 00:14:40;;;;;;;18.02;4.53;;;;;;;6.29;100.00;102956.09;5039212;28;20052;-71
2022/01/17 00:19:41;;;;;;;17.98;3.95;;;;;;;6.29;100.00;102958.81;5038365;28;20043;-71
2022/01/17 00:22:07;;;;;;;20.58;4.25;;;;;;;6.28;100.00;102958.00;5038769;28;20041;-71
2022/01/17 00:24:32;;;;;;;19.45;4.68;;;;;;;6.28;100.00;102968.81;5036502;28;20159;-71
2022/01/17 00:26:58;;;;;;;19.98;4.13;;;;;;;6.27;100.00;102964.44;5038478;28;20122;-71
2022/01/17 00:29:23;;;;;;;19.45;4.30;;;;;;;6.30;100.00;102961.28;5037842;28;20037;-71
2022/01/17 00:31:49;;;;;;;28.15;5.57;;;;;;;6.24;100.00;102962.16;5038051;28;20079;-71
2022/01/17 00:34:14;;;;;;;16.10;4.57;;;;;;;6.32;100.00;102961.06;5037878;28;20041;-70
2022/01/17 00:36:40;;;;;;;15.45;3.92;;;;;;;6.29;100.00;102962.34;5037304;28;20940;-71
2022/01/17 00:39:05;;;;;;;25.10;5.13;;;;;;;6.27;100.00;102959.00;5037465;28;20044;-70
2022/01/17 00:41:30;;;;;;;20.58;4.78;;;;;;;6.26;100.00;102957.38;5038008;28;20045;-72
2022/01/17 00:43:56;;;;;;;30.52;4.88;;;;;;;6.15;100.00;102960.81;5037935;28;20045;-71
2022/01/17 00:46:21;;;;;;;24.70;6.15;;;;;;;6.27;100.00;102980.69;5037643;28;20515;-71
2022/01/17 00:48:47;;;;;;;13.95;4.82;;;;;;;6.22;100.00;102983.22;5048997;28;20487;-71
2022/01/17 00:51:12;;;;;;;19.52;5.00;;;;;;;6.22;100.00;102999.50;5058102;28;20044;-69
2022/01/17 00:53:38;;;;;;;20.08;5.38;;;;;;;6.28;100.00;102998.63;5058028;28;20055;-70
2022/01/17 00:56:04;;;;;;;21.95;5.65;;;;;;;6.34;100.00;102986.91;5058582;28;20480;-72
2022/01/17 00:58:30;;;;;;;24.92;6.60;;;;;;;6.33;100.00;102985.22;5056948;28;20044;-71
2022/01/17 01:00:55;;;;;;;24.40;7.50;;;;;;;6.33;100.00;102985.22;5036844;28;20048;-71
2022/01/17 01:03:21;;;;;;;23.80;5.88;;;;;;;6.31;100.00;102986.50;5036028;28;20041;-71
2022/01/17 01:05:46;;;;;;;20.88;6.45;;;;;;;6.30;100.00;102982.94;5037122;28;20110;-70
2022/01/17 01:08:12;;;;;;;25.42;7.97;;;;;;;6.38;100.00;102978.31;5037298;28;20054;-71
2022/01/17 01:10:38;;;;;;;40.55;10.00;;;;;;;6.29;100.00;102983.19;5037455;28;20033;-71
2022/01/17 01:13:03;;;;;;;24.13;10.27;;;;;;;6.31;100.00;102976.50;5038282;28;20128;-70
2022/01/17 01:15:45;;;;;;;27.92;12.07;;;;;;;6.27;100.00;102985.28;5036374;28;20045;-70
2022/01/17 01:18:18;;;;;;;38.47;11.43;;;;;;;6.26;100.00;102984.47;5039048;28;20041;-71
2022/01/17 01:28:42;;;;;;;37.83;11.38;;;;;;;6.31;100.00;102994.63;5038874;28;20140;-70
2022/01/17 01:31:27;;;;;;;35.47;12.88;;;;;;;6.22;100.00;102993.25;5039177;28;20752;-71
2022/01/17 01:33:55;;;;;;;35.40;12.75;;;;;;;6.16;100.00;102978.69;5038799;28;20072;-70
2022/01/17 01:36:27;;;;;;;34.67;12.88;;;;;;;6.16;100.00;102973.28;5038772;28;20080;-69
2022/01/17 01:38:53;;;;;;;33.67;11.50;;;;;;;6.16;100.00;102984.13;5040917;28;20493;-70
2022/01/17 01:41:20;;;;;;;35.40;12.60;;;;;;;6.24;100.00;102981.13;5041402;28;20466;-70
2022/01/17 01:43:45;;;;;;;34.53;11.32;;;;;;;6.17;100.00;102972.25;5040392;28;20055;-70
2022/01/17 01:46:14;;;;;;;32.58;10.57;;;;;;;6.17;100.00;102963.28;5041928;28;20040;-71
2022/01/17 01:48:40;;;;;;;32.05;10.00;;;;;;;6.23;100.00;102984.91;5053645;28;20043;-71
2022/01/17 01:51:05;;;;;;;26.80;9.80;;;;;;;6.11;100.00;102981.28;5042303;28;20041;-70
2022/01/17 01:53:31;;;;;;;20.38;8.10;;;;;;;6.19;100.00;102988.28;5040293;28;20537;-71
2022/01/17 01:55:57;;;;;;;35.65;8.77;;;;;;;6.10;100.00;102985.00;5040446;28;20041;-70
2022/01/17 01:58:24;;;;;;;31.70;8.82;;;;;;;6.04;100.00;102985.91;5040469;28;20508;-70
2022/01/17 02:00:50;;;;;;;29.27;8.95;;;;;;;6.06;100.00;102975.69;5040615;28;20040;-70
2022/01/17 02:03:16;;;;;;;22.83;8.63;;;;;;;6.05;100.00;102971.28;5040544;28;20049;-71
2022/01/17 02:05:43;;;;;;;30.98;7.47;;;;;;;5.94;100.00;102969.31;5040541;28;20036;-70
2022/01/17 02:08:10;;;;;;;28.67;6.88;;;;;;;5.90;100.00;102967.03;5040141;28;20838;-70
2022/01/17 02:10:35;;;;;;;24.75;6.90;;;;;;;5.98;100.00;102975.94;5041877;28;20040;-69
2022/01/17 02:13:01;;;;;;;22.95;5.90;;;;;;;5.95;100.00;102989.94;5042836;28;20538;-70
2022/01/17 02:15:26;;;;;;;22.35;5.28;;;;;;;6.01;100.00;102999.88;5043183;28;20056;-71
2022/01/17 02:17:55;;;;;;;25.10;6.07;;;;;;;5.90;100.00;102999.53;5044414;28;20040;-71
2022/01/17 02:20:24;;;;;;;23.30;4.82;;;;;;;5.90;100.00;102994.09;5041287;28;20045;-72
2022/01/17 02:22:51;;;;;;;29.15;4.10;;;;;;;5.94;100.00;103001.81;5040080;28;20485;-70
2022/01/17 02:25:17;;;;;;;27.00;5.07;;;;;;;5.93;100.00;103010.94;5041815;28;20430;-70
2022/01/17 02:27:44;;;;;;;17.92;4.40;;;;;;;5.94;100.00;103002.66;5043403;28;20079;-71
2022/01/17 02:30:12;;;;;;;24.05;5.00;;;;;;;5.85;100.00;103009.34;5045008;28;20590;-70
2022/01/17 02:32:37;;;;;;;17.15;3.47;;;;;;;5.91;100.00;103008.47;5028127;28;20128;-72
2022/01/17 02:35:13;;;;;;;26.40;3.83;;;;;;;5.78;100.00;102997.72;5020419;28;20511;-70
2022/01/17 02:37:39;;;;;;;19.65;3.80;;;;;;;5.83;100.00;102995.19;5020007;28;20135;-70
2022/01/17 02:40:05;;;;;;;28.15;3.97;;;;;;;5.77;100.00;102990.66;5020056;28;20127;-71
2022/01/17 02:42:30;;;;;;;25.25;3.97;;;;;;;5.85;100.00;102999.34;5020484;28;20053;-70
2022/01/17 02:45:05;;;;;;;23.80;3.67;;;;;;;5.88;100.00;102993.47;5020133;28;20151;-70
2022/01/17 02:47:30;;;;;;;20.67;4.03;;;;;;;5.83;100.00;102990.59;5020769;28;20582;-70
2022/01/17 02:49:56;;;;;;;17.88;3.97;;;;;;;5.84;100.00;102981.41;5048279;28;20036;-70
2022/01/17 02:52:23;;;;;;;21.48;3.38;;;;;;;5.84;100.00;102991.41;5039849;28;20048;-70
2022/01/17 02:54:48;;;;;;;26.17;4.35;;;;;;;5.86;100.00;102995.56;5039235;28;20049;-71
2022/01/17 02:57:13;;;;;;;22.63;4.53;;;;;;;5.84;100.00;103003.06;5039642;28;20424;-70
2022/01/17 02:59:39;;;;;;;24.27;4.40;;;;;;;5.84;100.00;103007.66;5039637;28;20508;-70
2022/01/17 03:02:05;;;;;;;26.38;3.53;;;;;;;5.90;100.00;103007.66;5038254;28;20049;-70
2022/01/17 03:04:31;;;;;;;15.73;3.10;;;;;;;5.84;100.00;103007.66;5039274;28;20045;-70
2022/01/17 03:06:56;;;;;;;18.27;3.00;;;;;;;5.86;100.00;103001.00;5039911;28;20053;-70
2022/01/17 03:09:23;;;;;;;27.15;3.67;;;;;;;5.89;100.00;102995.13;5040074;28;20036;-70
2022/01/17 03:11:49;;;;;;;12.02;3.17;;;;;;;5.96;100.00;103005.13;5039090;28;20052;-70
2022/01/17 03:14:14;;;;;;;15.38;2.60;;;;;;;5.97;100.00;103012.22;5026848;28;20045;-71
2022/01/17 03:16:46;;;;;;;22.90;2.78;;;;;;;5.91;100.00;103019.28;5019538;28;20049;-71
2022/01/17 03:19:11;;;;;;;18.10;3.95;;;;;;;5.93;100.00;103027.19;5017695;28;20499;-69
2022/01/17 03:21:37;;;;;;;17.58;2.95;;;;;;;5.85;100.00;103014.75;5019065;28;20146;-72
2022/01/17 03:24:03;;;;;;;22.38;3.08;;;;;;;5.75;100.00;102996.28;5019038;28;20053;-71
2022/01/17 03:26:30;;;;;;;21.85;3.17;;;;;;;5.67;100.00;102991.97;5019179;28;20462;-70
2022/01/17 03:28:58;;;;;;;16.95;2.95;;;;;;;5.71;100.00;102986.13;5019431;28;20678;-69
2022/01/17 03:31:24;;;;;;;16.00;3.08;;;;;;;5.60;100.00;102976.81;5017520;28;20048;-71
2022/01/17 03:33:49;;;;;;;15.57;3.25;;;;;;;5.54;100.00;102980.38;5018197;28;20049;-72
2022/01/17 03:36:14;;;;;;;25.02;3.50;;;;;;;5.39;100.00;102978.78;5037069;23;20431;-72
2022/01/17 03:38:41;;;;;;;15.85;3.13;;;;;;;5.40;100.00;102988.56;5013358;28;20049;-69
2022/01/17 03:41:07;;;;;;;20.95;3.65;;;;;;;5.35;100.00;102988.41;5012827;28;20045;-69
2022/01/17 03:43:33;;;;;;;25.10;3.65;;;;;;;5.32;100.00;102994.22;5014180;28;20045;-69
2022/01/17 03:45:59;;;;;;;29.02;3.63;;;;;;;5.31;100.00;102992.56;5014365;28;20437;-70
2022/01/17 03:48:26;;;;;;;18.92;3.70;;;;;;;5.22;100.00;103005.50;5014936;28;20042;-70
2022/01/17 03:50:51;;;;;;;24.40;3.55;;;;;;;5.24;100.00;103010.72;4995445;28;20052;-69
2022/01/17 03:53:17;;;;;;;21.35;2.92;;;;;;;5.16;100.00;103011.78;4994556;28;20379;-70
2022/01/17 03:55:42;;;;;;;18.70;3.72;;;;;;;5.05;100.00;103020.53;4994254;28;20608;-69
2022/01/17 03:58:08;;;;;;;17.52;3.83;;;;;;;5.04;100.00;103018.06;4993587;28;20049;-70
2022/01/17 04:00:41;;;;;;;24.65;2.60;;;;;;;4.84;100.00;103018.94;4993575;28;20038;-69
2022/01/17 04:03:07;;;;;;;;;;;;;;;4.88;100.00;103014.75;5004504;28;20045;-69
2022/01/17 04:05:32;;;;;;;27.88;2.90;;;;;;;4.81;100.00;103013.97;5013356;28;19923;-69
2022/01/17 04:07:58;;;;;;;16.58;2.88;;;;;;;4.73;100.00;103006.06;5012713;28;20343;-69
2022/01/17 04:10:23;;;;;;;18.35;3.33;;;;;;;4.70;100.00;103001.91;5013819;28;20060;-69
2022/01/17 04:12:49;;;;;;;18.88;3.53;;;;;;;4.71;100.00;103005.44;5012885;28;20041;-69
2022/01/17 04:15:14;;;;;;;18.45;3.58;;;;;;;4.58;100.00;103005.50;5012594;28;20045;-69
2022/01/17 04:17:42;;;;;;;15.95;2.83;;;;;;;4.53;100.00;102996.13;5013754;28;20041;-69
2022/01/17 04:20:13;;;;;;;20.25;2.85;;;;;;;4.45;100.00;103015.28;5013373;28;20364;-69
2022/01/17 04:22:45;;;;;;;24.48;3.38;;;;;;;4.54;100.00;103011.31;5012655;28;20052;-69
2022/01/17 04:25:11;;;;;;;23.73;3.03;;;;;;;4.46;100.00;103016.94;5012980;28;20229;-69
2022/01/17 04:27:37;;;;;;;22.95;3.38;;;;;;;4.43;100.00;103028.16;5013488;28;20141;-69
2022/01/17 04:30:06;;;;;;;12.77;3.05;;;;;;;4.34;100.00;103040.22;5013601;28;20103;-70
2022/01/17 04:32:31;;;;;;;26.42;3.38;;;;;;;4.41;100.00;103041.03;5013110;28;20438;-69
2022/01/17 04:34:57;;;;;;;26.23;3.78;;;;;;;4.44;100.00;103046.00;5013239;28;20469;-70
2022/01/17 04:37:22;;;;;;;18.80;3.05;;;;;;;4.41;100.00;103046.44;5012318;28;20057;-69
2022/01/17 04:39:48;;;;;;;12.35;2.95;;;;;;;4.42;100.00;103047.25;5013458;28;20405;-69
2022/01/17 04:42:16;;;;;;;21.52;4.38;;;;;;;4.43;100.00;103054.34;5012686;28;20512;-70
2022/01/17 04:47:31;;;;;;;16.63;3.33;;;;;;;4.48;100.00;103051.81;5013415;28;20625;-70
2022/01/17 04:49:57;;;;;;;16.80;4.43;;;;;;;4.31;100.00;103041.47;5002247;28;20033;-69
2022/01/17 04:52:22;;;;;;;20.00;4.03;;;;;;;4.40;100.00;103046.66;4994132;28;20356;-69
2022/01/17 04:54:53;;;;;;;21.15;3.03;;;;;;;4.42;100.00;103036.44;4993389;28;20540;-69
2022/01/17 04:57:20;;;;;;;24.33;3.15;;;;;;;4.39;100.00;103037.69;4998129;28;20545;-69
2022/01/17 04:59:47;;;;;;;17.90;3.60;;;;;;;4.41;100.00;103024.81;5011780;28;20406;-69
2022/01/17 05:02:12;;;;;;;14.18;3.15;;;;;;;4.35;100.00;103017.56;5011651;28;20529;-69
2022/01/17 05:04:38;;;;;;;20.08;2.88;;;;;;;4.38;100.00;103022.53;5011812;28;20037;-70
2022/01/17 05:07:05;;;;;;;23.90;3.83;;;;;;;4.42;100.00;103026.50;4993542;28;20568;-69
2022/01/17 05:09:31;;;;;;;14.95;3.67;;;;;;;4.39;100.00;103037.69;5011750;28;20391;-69
2022/01/17 05:11:56;;;;;;;17.90;2.97;;;;;;;4.39;100.00;103039.56;5016093;28;20316;-69
2022/01/17 05:14:21;;;;;;;16.85;3.55;;;;;;;4.38;100.00;103046.84;5016644;28;20037;-69
2022/01/17 05:16:52;;;;;;;22.02;3.78;;;;;;;4.38;100.00;103052.25;5010741;28;20598;-69
2022/01/17 05:22:02;;;;;;;22.10;3.63;;;;;;;4.42;100.00;103048.13;5017738;28;20406;-70
2022/01/17 05:24:27;;;;;;;16.88;3.17;;;;;;;4.44;100.00;103046.00;4999075;28;20083;-71
2022/01/17 05:26:53;;;;;;;17.20;3.05;;;;;;;4.46;100.00;103041.25;5017168;28;20041;-72
2022/01/17 05:29:19;;;;;;;23.48;4.28;;;;;;;4.47;100.00;103042.91;5017199;28;20045;-71
2022/01/17 05:31:45;;;;;;;17.30;4.22;;;;;;;4.43;100.00;103048.94;4998891;28;20119;-72
2022/01/17 05:34:10;;;;;;;19.98;3.30;;;;;;;4.49;100.00;103051.63;5015883;28;20068;-71
2022/01/17 05:36:35;;;;;;;20.58;3.30;;;;;;;4.46;100.00;103049.34;5015650;28;20400;-71
2022/01/17 05:39:01;;;;;;;22.05;3.13;;;;;;;4.38;100.00;103049.56;5016204;28;20048;-71
2022/01/17 05:41:26;;;;;;;15.65;3.17;;;;;;;4.40;100.00;103042.09;5016832;28;20507;-71
2022/01/17 05:43:51;;;;;;;26.65;3.72;;;;;;;4.30;100.00;103036.25;5015902;28;20033;-71
2022/01/17 05:46:17;;;;;;;22.65;3.50;;;;;;;4.29;100.00;103045.41;5012612;28;20424;-71
2022/01/17 05:48:42;;;;;;;14.60;3.38;;;;;;;4.38;100.00;103035.22;4994998;28;20417;-70
2022/01/17 05:51:08;;;;;;;25.33;3.45;;;;;;;4.42;100.00;103042.72;4995348;28;20029;-71
2022/01/17 05:53:33;;;;;;;18.80;3.50;;;;;;;4.39;100.00;103053.91;4988370;28;20049;-72
2022/01/17 05:55:59;;;;;;;25.42;4.10;;;;;;;4.40;100.00;103054.75;5015895;28;20045;-71
2022/01/17 05:58:24;;;;;;;18.58;3.50;;;;;;;4.41;100.00;103046.44;5015757;28;20535;-70
2022/01/17 06:00:49;;;;;;;22.02;4.65;;;;;;;4.30;100.00;103044.34;5015712;28;20880;-71
2022/01/17 06:03:15;;;;;;;23.80;3.95;;;;;;;4.29;100.00;103048.09;4994276;28;20565;-71
2022/01/17 06:05:40;;;;;;;25.48;4.70;;;;;;;4.30;100.00;103050.59;4996418;28;20137;-71
2022/01/17 06:08:06;;;;;;;20.50;4.30;;;;;;;4.28;100.00;103059.97;4995899;28;20050;-71
2022/01/17 06:10:31;;;;;;;25.27;3.95;;;;;;;4.24;100.00;103061.38;4995125;28;20160;-71
2022/01/17 06:12:58;;;;;;;20.75;4.20;;;;;;;4.21;100.00;103067.19;5002229;28;20109;-71
2022/01/17 06:15:23;;;;;;;25.85;4.35;;;;;;;4.17;100.00;103077.59;5015917;28;20037;-71
2022/01/17 06:17:49;;;;;;;31.58;5.07;;;;;;;4.26;100.00;103083.63;5016142;28;20200;-71
2022/01/17 06:20:14;;;;;;;19.73;5.25;;;;;;;4.30;100.00;103076.75;4981852;28;20029;-70
2022/01/17 06:22:40;;;;;;;28.02;5.07;;;;;;;4.28;100.00;103084.25;4994737;28;20045;-70
2022/01/17 06:25:06;;;;;;;16.40;4.82;;;;;;;4.24;100.00;103061.38;4978763;28;20061;-71
2022/01/17 06:27:31;;;;;;;23.95;6.18;;;;;;;4.17;100.00;103074.06;4987043;28;20034;-71
2022/01/17 06:29:57;;;;;;;27.30;6.22;;;;;;;4.23;100.00;103078.63;4990796;28;20675;-71
2022/01/17 06:32:23;;;;;;;22.45;6.95;;;;;;;4.19;100.00;103063.88;4987924;28;20045;-71
2022/01/17 06:34:48;;;;;;;36.50;7.68;;;;;;;4.19;100.00;103059.31;5010252;28;20041;-70
2022/01/17 06:37:14;;;;;;;33.60;9.40;;;;;;;4.08;100.00;103068.84;5015865;28;20049;-71
2022/01/17 06:39:39;;;;;;;40.17;10.30;;;;;;;4.18;100.00;103054.13;5014844;28;20397;-71
2022/01/17 06:42:05;;;;;;;31.40;9.57;;;;;;;4.20;100.00;103049.34;5014870;28;20045;-71
2022/01/17 06:44:31;;;;;;;24.33;9.57;;;;;;;4.16;100.00;103050.78;5011501;28;21023;-71
2022/01/17 06:46:56;;;;;;;41.78;10.45;;;;;;;4.11;100.00;103047.88;4999749;28;20041;-70
2022/01/17 06:49:21;;;;;;;39.00;10.65;;;;;;;4.11;100.00;103045.19;5005235;28;20789;-71
2022/01/17 06:51:47;;;;;;;34.35;11.48;;;;;;;4.14;100.00;103047.47;4996289;28;20045;-70
2022/01/17 06:54:12;;;;;;;36.60;11.82;;;;;;;4.08;100.00;103047.25;5014299;28;20037;-69
2022/01/17 06:56:43;;;;;;;44.78;13.18;;;;;;;4.06;100.00;103057.41;5015639;28;20041;-70
2022/01/17 06:59:10;;;;;;;37.50;13.20;;;;;;;4.11;100.00;103072.19;5017269;28;20048;-70
2022/01/17 07:01:38;;;;;;;42.38;13.82;;;;;;;4.11;100.00;103078.41;5017213;28;20099;-71
2022/01/17 07:04:04;;;;;;;40.50;15.25;;;;;;;4.10;100.00;103087.53;5016187;28;20479;-70
2022/01/17 07:06:30;;;;;;;39.88;17.08;;;;;;;4.16;100.00;103088.59;5016053;28;20372;-70
2022/01/17 07:08:55;;;;;;;45.78;15.43;;;;;;;4.17;100.00;103111.88;4996152;28;20183;-71
2022/01/17 07:11:21;;;;;;;47.83;17.30;;;;;;;4.34;100.00;103121.25;5015178;28;20441;-71
2022/01/17 07:13:47;;;;;;;42.47;15.82;;;;;;;4.39;100.00;103104.41;5016382;28;20121;-70
2022/01/17 07:16:12;;;;;;;35.38;15.45;;;;;;;4.35;100.00;103098.59;5017359;28;20614;-70
2022/01/17 07:18:38;;;;;;;45.42;18.42;;;;;;;4.39;100.00;103097.13;5015793;28;20038;-71
2022/01/17 07:21:03;;;;;;;34.67;17.02;;;;;;;4.37;100.00;103093.81;4996914;28;20049;-68
2022/01/17 07:23:28;;;;;;;46.17;18.73;;;;;;;4.36;100.00;103094.00;4996885;28;20045;-71
2022/01/17 07:25:54;;;;;;;50.10;17.20;;;;;;;4.40;100.00;103087.19;5015355;28;20832;-69
2022/01/17 07:28:19;;;;;;;45.35;18.92;;;;;;;4.48;100.00;103074.28;5016402;28;20128;-69
2022/01/17 07:30:45;;;;;;;44.25;17.58;;;;;;;4.53;100.00;103068.25;5015532;28;20045;-70
2022/01/17 07:33:11;;;;;;;55.92;18.63;;;;;;;4.50;100.00;103072.19;4996724;28;20037;-69
2022/01/17 07:35:37;;;;;;;47.13;18.70;;;;;;;4.49;100.00;103085.94;5013353;28;20466;-69
2022/01/17 07:38:03;;;;;;;48.17;19.35;;;;;;;4.60;100.00;103087.19;5013830;28;20069;-70
2022/01/17 07:40:29;;;;;;;43.50;18.77;;;;;;;4.58;100.00;103100.06;4996770;28;20639;-70
2022/01/17 07:42:54;;;;;;;45.67;19.20;;;;;;;4.61;100.00;103103.19;5042357;23;20053;-70
2022/01/17 07:45:20;;;;;;;50.58;18.77;;;;;;;4.66;100.00;103095.28;5051302;28;20051;-70
2022/01/17 07:50:20;;;;;;;48.45;20.52;;;;;;;4.76;100.00;103114.59;5041323;28;20057;-70
2022/01/17 07:52:47;;;;;;;53.15;20.55;;;;;;;4.81;100.00;103116.69;5033187;28;20048;-70
2022/01/17 07:55:14;;;;;;;40.45;19.95;;;;;;;4.82;100.00;103121.03;5031285;28;20200;-70
2022/01/17 07:57:41;;;;;;;54.15;20.20;;;;;;;4.91;100.00;103117.06;5032650;28;20040;-70
2022/01/17 08:00:09;;;;;;;47.67;20.45;;;;;;;4.92;100.00;103126.03;5033106;28;20041;-70
2022/01/17 08:02:44;;;;;;;48.05;20.77;;;;;;;4.94;100.00;103138.28;5039767;28;20045;-71
2022/01/17 08:05:14;;;;;;;48.30;20.60;;;;;;;4.96;100.00;103141.63;5052953;28;20051;-69
2022/01/17 08:07:39;;;;;;;55.58;22.73;;;;;;;5.03;100.00;103140.78;5051113;28;20387;-70
2022/01/17 08:10:12;;;;;;;51.72;22.23;;;;;;;5.01;100.00;103142.88;5052529;28;20045;-70
2022/01/17 08:12:37;;;;;;;54.20;24.15;;;;;;;5.09;100.00;103139.94;5052069;28;20037;-70
2022/01/17 08:15:05;;;;;;;64.07;23.88;;;;;;;5.09;100.00;103145.34;5050179;28;20109;-71
2022/01/17 08:17:30;;;;;;;52.13;23.50;;;;;;;5.14;100.00;103137.44;5048888;28;20028;-70
2022/01/17 08:19:55;;;;;;;54.30;22.40;;;;;;;5.23;100.00;103141.59;5051575;28;20467;-70
2022/01/17 08:22:21;;;;;;;75.55;25.08;;;;;;;5.20;100.00;103139.28;5052970;28;20051;-70
2022/01/17 08:24:46;;;;;;;56.38;23.30;;;;;;;5.19;100.00;103134.94;5053152;28;20555;-71
2022/01/17 08:27:12;;;;;;;65.50;24.10;;;;;;;5.24;100.00;103132.44;5053691;28;20583;-70
2022/01/17 08:29:37;;;;;;;58.47;24.58;;;;;;;5.19;100.00;103126.81;5050894;28;20050;-70
2022/01/17 08:32:05;;;;;;;51.38;24.30;;;;;;;5.22;100.00;103129.94;5049759;28;20051;-72
2022/01/17 08:34:31;;;;;;;53.17;23.50;;;;;;;5.22;100.00;103139.94;5051674;28;20049;-70
2022/01/17 08:36:57;;;;;;;61.28;25.80;;;;;;;5.30;100.00;103126.19;5047836;28;20043;-70
2022/01/17 08:39:24;;;;;;;56.80;23.60;;;;;;;5.36;100.00;103129.91;5049083;28;20044;-70
2022/01/17 08:41:51;;;;;;;51.75;21.90;;;;;;;5.52;100.00;103139.44;5050725;28;20460;-70
2022/01/17 08:44:19;;;;;;;47.22;22.85;;;;;;;5.50;100.00;103127.97;5046032;28;20044;-70
2022/01/17 08:46:44;;;;;;;64.18;24.83;;;;;;;5.58;100.00;103135.88;5049625;28;20364;-69
2022/01/17 08:49:10;;;;;;;62.15;23.75;;;;;;;5.60;100.00;103136.50;5042597;28;20040;-70
2022/01/17 08:51:36;;;;;;;59.00;22.48;;;;;;;5.71;100.00;103138.53;5051056;28;20036;-70
2022/01/17 08:54:01;;;;;;;62.72;24.67;;;;;;;5.65;100.00;103133.97;5051670;28;20040;-70
2022/01/17 08:56:30;;;;;;;54.10;21.52;;;;;;;5.71;100.00;103138.53;5051761;28;20052;-70
2022/01/17 08:58:56;;;;;;;62.05;21.92;;;;;;;5.68;100.00;103139.78;5052080;28;20676;-71
2022/01/17 09:01:23;;;;;;;53.90;21.45;;;;;;;5.72;100.00;103145.59;5052317;28;20071;-70
2022/01/17 09:03:49;;;;;;;52.58;20.42;;;;;;;5.70;100.00;103142.25;5036093;28;20052;-69
2022/01/17 09:06:14;;;;;;;45.15;20.25;;;;;;;5.65;100.00;103140.22;5031281;28;20036;-70
2022/01/17 09:08:41;;;;;;;53.13;20.75;;;;;;;5.67;100.00;103145.41;5032355;28;20045;-70
2022/01/17 09:11:07;;;;;;;48.67;19.80;;;;;;;5.71;100.00;103143.94;5032448;28;20087;-70
2022/01/17 09:13:32;;;;;;;55.08;20.02;;;;;;;5.70;100.00;103144.97;5029996;28;20338;-70
2022/01/17 09:15:58;;;;;;;45.47;18.98;;;;;;;5.79;100.00;103157.25;5032124;28;20475;-70
2022/01/17 09:18:24;;;;;;;50.00;19.30;;;;;;;5.77;100.00;103164.75;5031657;28;20049;-69
2022/01/17 09:20:50;;;;;;;53.40;18.67;;;;;;;5.77;100.00;103175.56;5032921;28;20127;-70
2022/01/17 09:23:16;;;;;;;70.25;20.23;;;;;;;5.83;100.00;103185.53;5032096;28;20037;-70
2022/01/17 09:25:42;;;;;;;48.92;19.95;;;;;;;5.95;100.00;103183.03;5040849;28;20520;-71
2022/01/17 09:28:08;;;;;;;50.28;18.10;;;;;;;5.76;100.00;103173.06;5050524;28;20036;-70
2022/01/17 09:30:34;;;;;;;50.72;18.38;;;;;;;5.84;100.00;103168.25;5049831;28;20063;-70
2022/01/17 09:32:59;;;;;;;49.67;18.90;;;;;;;5.79;100.00;103173.50;5051759;28;20164;-70
2022/01/17 09:35:25;;;;;;;52.63;18.80;;;;;;;5.80;100.00;103180.56;5050990;28;20049;-70
2022/01/17 09:37:52;;;;;;;50.95;18.55;;;;;;;5.70;100.00;103182.88;5051135;28;20044;-71
2022/01/17 09:40:19;;;;;;;51.05;17.48;;;;;;;5.90;100.00;103180.94;5050032;28;20505;-70
2022/01/17 09:42:46;;;;;;;49.83;18.48;;;;;;;5.90;100.00;103185.50;5027665;28;20061;-71
2022/01/17 09:45:15;;;;;;;46.00;17.45;;;;;;;5.98;100.00;103209.69;5028708;28;20045;-71
2022/01/17 09:47:42;;;;;;;51.30;17.40;;;;;;;5.98;100.00;103209.69;5026174;28;20127;-70
2022/01/17 09:50:12;;;;;;;49.53;16.42;;;;;;;6.05;100.00;103215.06;5018635;28;20041;-69
2022/01/17 09:52:45;;;;;;;44.05;16.20;;;;;;;6.21;100.00;103230.84;5022409;28;20094;-70
2022/01/17 09:55:21;;;;;;;37.97;15.60;;;;;;;6.21;100.00;103225.41;5024435;28;20702;-70
2022/01/17 09:57:52;;;;;;;46.20;16.63;;;;;;;6.35;100.00;103229.72;5029810;28;20457;-71
2022/01/17 10:00:24;;;;;;;47.30;14.60;;;;;;;6.31;100.00;103236.63;5033487;28;20445;-71
2022/01/17 10:02:50;;;;;;;45.83;14.88;;;;;;;6.33;100.00;103223.69;5033496;28;20484;-71
2022/01/17 10:05:16;;;;;;;37.92;14.75;;;;;;;6.27;100.00;103224.56;5035097;28;20076;-71
2022/01/17 10:07:56;;;;;;;43.55;13.82;;;;;;;6.39;100.00;103226.59;5035190;28;20043;-70
2022/01/17 10:10:43;;;;;;;34.90;13.93;;;;;;;6.40;100.00;103211.97;5034922;28;20107;-70
2022/01/17 10:13:20;;;;;;;60.33;14.77;;;;;;;6.45;100.00;103210.28;5035380;28;20037;-71
2022/01/17 10:16:06;;;;;;;42.47;13.73;;;;;;;6.26;100.00;103201.22;5034697;28;20041;-69
2022/01/17 10:18:37;;;;;;;36.25;13.57;;;;;;;6.37;100.00;103201.56;5035843;28;20044;-70
2022/01/17 10:21:14;;;;;;;50.25;13.93;;;;;;;6.53;100.00;103206.47;5036258;28;20037;-71
2022/01/17 10:23:59;;;;;;;36.33;13.15;;;;;;;6.47;100.00;103218.19;5034978;28;20059;-70
2022/01/17 10:26:51;;;;;;;41.03;14.60;;;;;;;6.64;100.00;103218.53;5035697;28;20559;-71
2022/01/17 10:34:57;;;;;;;39.15;12.48;;;;;;;6.88;100.00;103222.31;5035351;28;20324;-70
2022/01/17 10:37:24;;;;;;;;;;;;;;;6.84;100.00;103229.22;5036056;28;20118;-70
2022/01/17 10:39:59;;;;;;;40.00;12.70;;;;;;;6.84;100.00;103223.81;5033661;28;20446;-71
2022/01/17 10:42:43;;;;;;;45.50;12.98;;;;;;;6.86;100.00;103232.53;5035364;28;20056;-71
2022/01/17 10:45:18;;;;;;;42.42;12.85;;;;;;;6.74;100.00;103225.09;5035244;28;20044;-71
2022/01/17 10:47:45;;;;;;;42.45;12.80;;;;;;;6.92;100.00;103235.22;5031677;28;20301;-70
2022/01/17 10:50:29;;;;;;;48.08;12.23;;;;;;;7.03;100.00;103223.63;5026983;28;20079;-70
2022/01/17 10:52:58;;;;;;;43.03;12.85;;;;;;;6.99;100.00;103219.72;5033800;28;20048;-70
2022/01/17 10:55:31;;;;;;;32.60;11.82;;;;;;;7.07;100.00;103225.91;5033395;28;20076;-71
2022/01/17 10:58:03;;;;;;;40.42;11.57;;;;;;;6.97;100.00;103239.97;5032322;28;20471;-70
2022/01/17 11:00:32;;;;;;;32.90;9.93;;;;;;;7.20;100.00;103247.50;5033420;28;20192;-71
2022/01/17 11:03:07;;;;;;;36.10;10.63;;;;;;;7.29;100.00;103257.03;5024240;28;20064;-70
2022/01/17 11:05:33;;;;;;;29.77;9.25;;;;;;;7.28;100.00;103266.22;5014294;28;20422;-70
2022/01/17 11:08:01;;;;;;;32.63;9.40;;;;;;;7.44;100.00;103267.53;5014148;28;20501;-71
2022/01/17 11:10:47;;;;;;;32.85;9.60;;;;;;;7.47;100.00;103257.06;5013857;28;20063;-71
2022/01/17 11:13:15;;;;;;;36.95;9.68;;;;;;;7.52;100.00;103271.84;5013342;28;20580;-70
2022/01/17 11:15:44;;;;;;;34.95;9.05;;;;;;;7.56;100.00;103276.59;5012861;28;20482;-70
2022/01/17 11:18:17;;;;;;;54.13;11.50;;;;;;;7.67;100.00;103272.34;5012915;28;20458;-70
2022/01/17 11:20:43;;;;;;;27.90;8.68;;;;;;;7.51;100.00;103268.31;5013289;28;20207;-70
2022/01/17 11:23:09;;;;;;;36.13;9.48;;;;;;;7.47;100.00;103261.66;5013268;28;20049;-70
2022/01/17 11:25:37;;;;;;;37.22;9.45;;;;;;;7.75;100.00;103257.63;5013317;28;20533;-70
2022/01/17 11:28:05;;;;;;;35.97;9.68;;;;;;;7.66;100.00;103257.94;5013837;28;20042;-70
2022/01/17 11:30:36;;;;;;;34.90;9.02;;;;;;;7.53;100.00;103255.34;5013611;28;20044;-71
2022/01/17 11:33:04;;;;;;;44.88;9.50;;;;;;;7.63;100.00;103260.28;5011802;28;20132;-70
2022/01/17 11:35:32;;;;;;;28.67;8.13;;;;;;;7.58;100.00;103258.22;5012488;28;20136;-71
2022/01/17 11:38:00;;;;;;;44.40;9.60;;;;;;;7.50;100.00;103269.34;5013371;28;20309;-70